Tams, West Virginia
Current Conditions -  °F | °C
As of 1:51 PM on Saturday 20 Dec 2014 (Local Time) from KBKW Reporting Station
Haze Haze  
Wind Chill: 35°   Ceiling: 900
Heat Index: 35°   Visibility: 6mi
Dew Point: 30°   Wind: 3mph
Humidity: 82%   Direction: 240°WSW
Pressure: 30.12"   Gusts: NA
Location:  37.6919°N, 81.2784°W
Report Text: KBKW 201851Z AUTO 24003KT 6SM HZ OVC009 02/M01 A3012 RMK AO2 SNB1758E30B37E51 SLP233 P0000 T00171011
Loading
Personal Weather Stations






























Interactive Weather Map New forecast layout! Learn more

10-Day Weather Forecast

Advertisements
Track Severe Weather on mobile